Ergebnisliste vom: 24.07.2005 - Leipziger Triathlon - Fitness

weitere Ergebnisse >>

Plg. Plm Plw StNr. Name,Vorname Verein GJ Ak AKm AKw Endzeit Schwim. Rad Schw+Rad Lauf RŁckst.
1 1   513 Voigt, Martin SC DHfK Leipzig 86 mJun 1   1:00:18 0:06:15( 2 ) 0:35:50( 2 ) 0:42:05( 1 ) 0:18:13( 1 ) 0:00:00
2 2   955 Otto, Christian TV Dresden e.V. 86 mJun 2   1:01:08 0:06:12( 1 ) 0:35:56( 3 ) 0:42:08( 2 ) 0:19:00( 2 ) 0:00:50
3 3   936 Lindner, Stefan SC Riesa 82 TM20 1   1:01:53 0:07:42( 9 ) 0:34:52( 1 ) 0:42:34( 3 ) 0:19:19( 4 ) 0:01:35
4 4   1000 Br√§unig, Oliver SC DHFK 87 mJun 3   1:02:21 0:00:00 0:00:00 0:00:00 0:00:00 0:02:03
5 5   933 Matz, Thomas Wasserwacht Marienberg 82 TM20 2   1:04:53 0:00:00 0:00:00 0:45:08( 4 ) 0:19:45( 5 ) 0:04:35
6 6   953 Beer, Jonas TSV Fl√∂ha 1848 87 mJun 4   1:05:19 0:07:34( 7 ) 0:00:00 0:00:00 0:00:00 0:05:01
7 7   947 H√ľnig, Matthias TSV Fl√∂ha 87 mJun 5   1:05:24 0:07:08( 4 ) 0:00:00 0:00:00 0:00:00 0:05:06
8 8   1002 Scholze, Steffen   87 mJun 6   1:07:52 0:06:43( 3 ) 0:00:00 0:00:00 0:00:00 0:07:34
9 9   1018 Heiner, Till   79 TM25 1   1:08:43 0:08:40( 21 ) 0:39:42( 32 ) 0:48:22( 9 ) 0:20:21( 7 ) 0:08:25
10 10   529 Herfurth, Uwe SV-04 Zwickau 71 TM30 1   1:08:53 0:08:09( 11 ) 0:00:00 0:00:00 0:00:00 0:08:35
11 11   1007 Langanke, Kai   75 TM30 2   1:09:02 0:08:42( 23 ) 0:00:00 0:00:00 0:00:00 0:08:44
12 12   520 Schumann, Winfried TuS Neuk√∂lln Berlin 66 TM35 1   1:09:05 0:09:48( 54 ) 0:39:25( 24 ) 0:49:13( 21 ) 0:19:52( 6 ) 0:08:47
13 13   599 Hoffmann, Thomas USV Halle 76 TM25 2   1:09:17 0:08:34( 19 ) 0:37:55( 5 ) 0:46:29( 5 ) 0:22:48( 20 ) 0:08:59
14 14   1074 Hartung, Michael Merseburg 76 TM25 3   1:09:39 0:09:54( 56 ) 0:00:00 0:00:00 0:00:00 0:09:21
15 15   1097 Mysliwiec, Heiko   60 TM45 1   1:09:48 0:10:16( 71 ) 0:37:29( 4 ) 0:47:45( 7 ) 0:22:03( 13 ) 0:09:30
16 16   861 Zerbes, Joachim TV Dresden 79 TM25 4   1:10:57 0:08:31( 18 ) 0:39:38( 29 ) 0:48:09( 8 ) 0:22:48( 21 ) 0:10:39
17 17   888 Hoppe, Mario TSV Leuna/Ski 72 TM30 3   1:11:36 0:11:56(164) 0:38:21( 10 ) 0:50:17( 30 ) 0:21:19( 8 ) 0:11:18
18 18   1005 T√∂lg, Christian   81 TM20 3   1:11:38 0:09:38( 50 ) 0:39:21( 21 ) 0:48:59( 18 ) 0:22:39( 16 ) 0:11:20
19 19   708 Leistner, Matthias Skiverein Sch√∂nheide 58 TM45 2   1:11:43 0:10:17( 73 ) 0:38:38( 13 ) 0:48:55( 15 ) 0:22:48( 21 ) 0:11:25
20 20   732 Pfl√ľger, Sebastian LFV Oberholz 88 mJugA 1   1:11:46 0:08:10( 12 ) 0:39:32( 28 ) 0:47:42( 6 ) 0:24:04( 54 ) 0:11:28
21 21   767 Schramm, Olaf Skiverein Ehrenfriedersdorf 66 TM35 2   1:11:56 0:10:10( 66 ) 0:38:51( 15 ) 0:49:01( 19 ) 0:22:55( 23 ) 0:11:38
21 21   865 Baumg√§rtner, Stefan Leipzig 82 TM20 4   1:11:56 0:08:40( 21 ) 0:40:18( 48 ) 0:48:58( 17 ) 0:22:58( 24 ) 0:11:38
23 23   1076 Geldner, Udo   66 TM35 3   1:12:02 0:10:59(101) 0:39:01( 18 ) 0:50:00( 25 ) 0:22:02( 12 ) 0:11:44
24   1 547 Tempel, Julia SC DHfK Leipzig 86 wJun   1 1:12:35 0:07:41( 8 ) 0:40:44( 56 ) 0:48:25( 10 ) 0:24:10( 56 ) 0:12:17
25 24   853 Felgner, Robert Wasserwacht Marienberg 80 TM25 5   1:12:40 0:09:01( 31 ) 0:40:53( 60 ) 0:49:54( 22 ) 0:22:46( 19 ) 0:12:22
26 25   1086 Didlaukat, J√∂rg   75 TM30 4   1:12:45 0:09:25( 44 ) 0:00:00 0:00:00 0:00:00 0:12:27
27 26   922 Friedemann, Sven RV Triton Leipzig 80 TM25 6   1:12:50 0:00:00 0:00:00 0:48:52( 14 ) 0:23:58( 47 ) 0:12:32
28 27   629 Seifert, Steffen SV Sparkasse Zwickau 67 TM35 4   1:13:04 0:10:35( 90 ) 0:40:12( 45 ) 0:50:47( 52 ) 0:22:17( 14 ) 0:12:46
29 28   948 K√∂lbel, Frank JV Ippon Rodewisch 62 TM40 1   1:13:06 0:10:33( 88 ) 0:38:33( 12 ) 0:49:06( 20 ) 0:24:00( 50 ) 0:12:48
30   2 826 Stoltze, Julia SG Adelsberg 88 wJugA   1 1:13:08 0:07:46( 10 ) 0:00:00 0:00:00 0:00:00 0:12:50
31 29   908 Walochny, Sascha SC DHfK Leipzig 80 TM25 7   1:13:17 0:09:56( 58 ) 0:38:50( 14 ) 0:48:46( 12 ) 0:24:31( 64 ) 0:12:59
32 30   911 R√ľstau, Tom Leipzig 85 TM20 5   1:13:38 0:10:28( 83 ) 0:00:00 0:00:00 0:00:00 0:13:20
33 31   821 Galle, Thomas Oschatz 80 TM25 8   1:13:40 0:09:36( 49 ) 0:41:06( 69 ) 0:50:42( 48 ) 0:22:58( 24 ) 0:13:22
34 32   954 K√∂lbel, Benny SV Gr√ľnbach 89 mJugA 2   1:13:46 0:10:01( 62 ) 0:00:00 0:00:00 0:00:00 0:13:28
35 33   1017 Einsiedel, Tom   67 TM35 5   1:13:47 0:11:57(166) 0:38:24( 11 ) 0:50:21( 34 ) 0:23:26( 29 ) 0:13:29
36 34   820 Reiher, Pierre Leipzig 80 TM25 9   1:13:48 0:08:16( 15 ) 0:41:43( 93 ) 0:49:59( 24 ) 0:23:49( 43 ) 0:13:30
37 35   909 Schmitt, Oliver SC DHfK Leipzig 81 TM20 6   1:13:49 0:09:31( 46 ) 0:00:00 0:00:00 0:00:00 0:13:31
38 36   716 Reimann, Henning RSV Jena 75 TM30 5   1:13:50 0:11:17(127) 0:38:59( 17 ) 0:50:16( 29 ) 0:23:34( 33 ) 0:13:32
39 37   960 Apitz, Frank   89 mJugA 3   1:13:53 0:00:00 0:00:00 0:49:55( 23 ) 0:23:58( 47 ) 0:13:35
40 38   594 Winke, Berthold SPVG Bielefeld-Heepen 63 TM40 2   1:14:08 0:10:13( 68 ) 0:40:09( 43 ) 0:50:22( 36 ) 0:23:46( 41 ) 0:13:50
41 39   899 Lehmann, Marcus ESV Lok Beucha 87 mJun 7   1:14:10 0:10:32( 87 ) 0:38:19( 8 ) 0:48:51( 13 ) 0:25:19( 93 ) 0:13:52
42 40   850 Zawade, Hendric Post SV Leipzig 80 TM25 10   1:14:18 0:08:57( 29 ) 0:41:33( 83 ) 0:50:30( 42 ) 0:23:48( 42 ) 0:14:00
43   3 985 Wiei√ü, Margrit TV Dresden 76 TW25   1 1:14:24 0:08:57( 29 ) 0:41:26( 79 ) 0:50:23( 38 ) 0:24:01( 53 ) 0:14:06
44 41   543 Stahlhut, Marco Leipzig 84 TM20 7   1:14:31 0:08:38( 20 ) 0:40:18( 47 ) 0:48:56( 16 ) 0:25:35(104) 0:14:13
45 42   517 Walpuski, Dennis Tri Finisher 62 TM40 3   1:14:49 0:09:23( 42 ) 0:40:54( 61 ) 0:50:17( 30 ) 0:24:32( 65 ) 0:14:31
46 43   714 Wunderlich, Reiner RSV Jena 79 TM25 11   1:14:54 0:00:00 0:00:00 0:50:09( 28 ) 0:24:45( 73 ) 0:14:36
47   4 889 G√ľnther, Theres SG Adelsberg 89 wJugA   2 1:14:57 0:07:27( 5 ) 0:41:01( 64 ) 0:48:28( 11 ) 0:26:29(149) 0:14:39
48 44   650 Wieland, Sebastian Geithain 78 TM25 12   1:14:59 0:11:16(125) 0:39:14( 19 ) 0:50:30( 42 ) 0:24:29( 62 ) 0:14:41
49 45   881 Werner, Marc Thielz 77 TM25 13   1:15:21 0:11:18(128) 0:39:53( 37 ) 0:51:11( 58 ) 0:24:10( 56 ) 0:15:03
50 46   919 B√∂ttger, Frank SV Braunsbedra 63 TM40 4   1:15:28 0:00:00 0:00:00 0:53:08(107) 0:22:20( 15 ) 0:15:10
51 47   871 Gerlich, Thomas Leipzig 70 TM35 6   1:15:46 0:10:46( 97 ) 0:40:07( 41 ) 0:50:53( 54 ) 0:24:53( 78 ) 0:15:28
52 48   912 Arnhold, Matthias Leipzig 70 TM35 7   1:15:48 0:08:49( 26 ) 0:43:09(138) 0:51:58( 73 ) 0:23:50( 44 ) 0:15:30
53 49   1016 Pospisil, Joachim SV Elbland Coswig-Mei√üen 58 TM45 3   1:15:50 0:12:04(177) 0:40:01( 38 ) 0:52:05( 75 ) 0:23:45( 38 ) 0:15:32
54 50   661 Eckert, Bodo SC DHfK 83 TM20 8   1:15:53 0:00:00 0:00:00 0:50:34( 45 ) 0:25:19( 94 ) 0:15:35
55 51   731 Renne, Max Mittenwalde 74 TM30 6   1:15:56 0:10:49( 98 ) 0:41:33( 84 ) 0:52:22( 88 ) 0:23:34( 33 ) 0:15:38
56 52   609 Schroth, Peter SSV Markranst√§dt 84 TM20 9   1:16:03 0:10:24( 78 ) 0:40:50( 59 ) 0:51:14( 59 ) 0:24:49( 75 ) 0:15:45
57 53   670 M√ľller, Frank Leipzig 76 TM25 14   1:16:06 0:09:54( 56 ) 0:40:25( 51 ) 0:50:19( 32 ) 0:25:47(115) 0:15:48
58 54   923 Behling, Jan RSV Jena 78 TM25 15   1:16:11 0:12:56(245) 0:41:27( 80 ) 0:54:23(153) 0:21:48( 11 ) 0:15:53
59 55   1008 Sack, Jens Uwe   69 TM35 8   1:16:19 0:09:24( 43 ) 0:41:04( 68 ) 0:50:28( 41 ) 0:25:51(121) 0:16:01
60 56   963 Fellmann, Frank   58 TM45 4   1:16:23 0:11:22(132) 0:39:23( 23 ) 0:50:45( 49 ) 0:25:38(110) 0:16:05
61 57   858 Kuntz, Matthias Chemnitz 83 TM20 10   1:16:34 0:11:50(156) 0:40:44( 56 ) 0:52:34( 93 ) 0:24:00( 50 ) 0:16:16
62 58   904 Kischlat, Tilo Leipzig 74 TM30 7   1:16:36 0:10:16( 71 ) 0:40:05( 39 ) 0:50:21( 34 ) 0:26:15(138) 0:16:18
63 59   511 Buchold, Jens TC Geithain 67 TM35 9   1:16:50 0:09:09( 39 ) 0:42:43(123) 0:51:52( 69 ) 0:24:58( 81 ) 0:16:32
64 60   890 Hartlep, Sirko SVN 90 78 TM25 16   1:16:53 0:11:02(105) 0:42:06(106) 0:53:08(107) 0:23:45( 38 ) 0:16:35
65   5 1079 Stary, Ariane Dresden 88 wJugA   3 1:16:57 0:08:11( 13 ) 0:41:51( 98 ) 0:50:02( 27 ) 0:26:55(170) 0:16:39
66 61   924 L√∂sche, Thomas Leipzig 80 TM25 17   1:16:58 0:10:20( 77 ) 0:40:26( 52 ) 0:50:46( 50 ) 0:26:12(132) 0:16:40
67 62   905 Helmig, Sebastian Chemnitz 79 TM25 18   1:16:59 0:11:02(105) 0:41:16( 73 ) 0:52:18( 83 ) 0:24:41( 70 ) 0:16:41
68 63   662 Belusa, Gerd Grimma 70 TM35 10   1:17:02 0:11:04(110) 0:39:27( 25 ) 0:50:31( 44 ) 0:26:31(152) 0:16:44
69 64   569 Gohlicke, Torsten RG Wiking 61 TM40 5   1:17:04 0:00:00 0:00:00 0:51:51( 68 ) 0:25:13( 89 ) 0:16:46
70 65   801 Johannsen, Ole SC DHfk Leipzig 79 TM25 19   1:17:05 0:00:00 0:00:00 0:51:03( 56 ) 0:26:02(128) 0:16:47
71 66   1077 Vogler, Mirko Thalheim 71 TM30 8   1:17:06 0:12:36(219) 0:41:48( 96 ) 0:54:24(154) 0:22:42( 17 ) 0:16:48
72 67   966 M√ľhl, Mirko   69 TM35 11   1:17:07 0:12:28(210) 0:40:06( 40 ) 0:52:34( 93 ) 0:24:33( 66 ) 0:16:49
73 68   620 Le√ümann, Frank Leipzig 70 TM35 12   1:17:11 0:00:00 0:00:00 0:53:41(120) 0:23:30( 31 ) 0:16:53
74   6 644 Jakob, Heidi Leipzig 76 TW25   2 1:17:21 0:00:00 0:00:00 0:50:57( 55 ) 0:26:24(142) 0:17:03
75 69   986 K√∂hler, J√∂rg   72 TM30 9   1:17:22 0:10:19( 76 ) 0:39:42( 32 ) 0:50:01( 26 ) 0:27:21(187) 0:17:04
76 70   958 D√∂belt, Karsten   69 TM35 13   1:17:36 0:13:12(269) 0:00:00 0:00:00 0:00:00 0:17:18
77 71   589 Reiche, Jens Leipzig 72 TM30 10   1:17:41 0:11:53(160) 0:40:18( 48 ) 0:52:11( 76 ) 0:25:30( 99 ) 0:17:23
78 72   685 Krumpek, Marcel SV B√§ren / Fu√üball 81 TM20 11   1:17:49 0:00:00 0:00:00 0:54:16(144) 0:23:33( 32 ) 0:17:31
79 73   829 Chitralla, Jan In-Team 75 TM30 11   1:17:51 0:10:15( 70 ) 0:00:00 0:00:00 0:00:00 0:17:33
80 74   787 Thiel, Siegfried RSV Lu.-Wittenberg 54 TM50 1   1:17:52 0:11:58(167) 0:00:00 0:00:00 0:00:00 0:17:34
81 75   848 Ertel, Martin TSV 1880 Gera Zw√∂tzen 82 TM20 12   1:17:53 0:12:10(187) 0:42:05(105) 0:54:15(142) 0:23:38( 36 ) 0:17:35
82 76   999 Kuhn, Hartmut Firma Kahmann 65 TM40 6   1:17:54 0:12:13(191) 0:42:33(117) 0:54:46(169) 0:23:08( 28 ) 0:17:36
83 77   736 Roscher, Frank SG Nord Leipzig 64 TM40 7   1:17:55 0:12:39(221) 0:42:11(107) 0:54:50(172) 0:23:05( 27 ) 0:17:37
84 78   635 Fischer, Ralf LKC 51 TM50 2   1:17:57 0:11:59(168) 0:41:52( 99 ) 0:53:51(125) 0:24:06( 55 ) 0:17:39
85 79   586 Langwald, Sebastian SV Lindenau 1848 e.V. 84 TM20 13   1:18:02 0:00:00 0:00:00 0:52:19( 85 ) 0:25:43(113) 0:17:44
86 80   674 Scholze, Mark Leipzig 81 TM20 14   1:18:03 0:13:21(281) 0:39:30( 27 ) 0:52:51(102) 0:25:12( 88 ) 0:17:45
86 80   675 G√ľnther, Sandro Leipzig 81 TM20 14   1:18:03 0:00:00 0:00:00 0:52:50(101) 0:25:13( 90 ) 0:17:45
88 82   937 Deibicht, Ronny LC-D√ľbener Heide 79 TM25 20   1:18:04 0:12:45(230) 0:41:34( 86 ) 0:54:19(147) 0:23:45( 37 ) 0:17:46
89 83   715 M√ľller, Eckhard SV Rot-Weiss Wiehe 54 TM50 3   1:18:05 0:00:00 0:00:00 0:54:15(142) 0:23:50( 45 ) 0:17:47
90 84   1099 Wittfoth, Maik   82 TM20 16   1:18:06 0:12:40(223) 0:43:41(152) 0:56:21(193) 0:21:45( 10 ) 0:17:48
91 85   942 Bollmann, Bernd SV Braunsbedra 67 TM35 14   1:18:07 0:12:29(211) 0:38:21( 9 ) 0:50:50( 53 ) 0:27:17(180) 0:17:49
92 86   785 M√∂bius, Sven unorganisierter Haufen 74 TM30 12   1:18:08 0:11:16(125) 0:41:28( 81 ) 0:52:44( 99 ) 0:25:24( 98 ) 0:17:50
93 87   935 Ehrlich, Dirk SC Riesa 65 TM40 8   1:18:10 0:12:17(198) 0:42:26(114) 0:54:43(165) 0:23:27( 30 ) 0:17:52
94 88   1090 H√§nsel, Martin   89 mJugA 4   1:18:12 0:10:14( 69 ) 0:41:31( 82 ) 0:51:45( 64 ) 0:26:27(147) 0:17:54
95 89   602 Bachstein, Erhard Berlin 61 TM40 9   1:18:14 0:10:36( 91 ) 0:41:57(103) 0:52:33( 90 ) 0:25:41(112) 0:17:56
96 90   843 Scheffler, Tobias Leipziger Seesportclub 75 TM30 13   1:18:21 0:10:39( 94 ) 0:43:12(142) 0:53:51(125) 0:24:30( 63 ) 0:18:03
97 91   616 En√üle, Jan Schwarzenberg 76 TM25 21   1:18:23 0:11:44(148) 0:41:03( 65 ) 0:52:47(100) 0:25:36(108) 0:18:05
98   7 1010 Sievers, Frauke Halle 83 TW20   1 1:18:24 0:08:56( 27 ) 0:42:50(126) 0:51:46( 65 ) 0:26:38(160) 0:18:06
99 92   744 Knopke, Michael Meerane 77 TM25 22   1:18:28 0:12:10(187) 0:40:08( 42 ) 0:52:18( 83 ) 0:26:10(129) 0:18:10
100   8 929 Meichsner, Anja Leipzig 79 TW25   3 1:18:29 0:11:40(145) 0:41:58(104) 0:53:38(118) 0:24:51( 77 ) 0:18:11
101 93   891 Fobe, Martin Leipzig 80 TM25 23   1:18:32 0:12:09(185) 0:41:55(101) 0:54:04(133) 0:24:28( 61 ) 0:18:14
102 94   818 M√∂bius, Jens LRC Mittelsachsen 75 TM30 14   1:18:33 0:13:15(274) 0:42:18(112) 0:55:33(183) 0:23:00( 26 ) 0:18:15
103 95   1013 M√ľller, Steffen   70 TM35 15   1:18:37 0:12:25(207) 0:39:47( 36 ) 0:52:12( 78 ) 0:26:25(144) 0:18:19
104 96   885 Friedrich, Stephan Leipzig 75 TM30 15   1:18:41 0:11:21(130) 0:41:19( 76 ) 0:52:40( 97 ) 0:26:01(126) 0:18:23
105 97   809 Drummer, Ringo Leipzig 70 TM35 16   1:18:42 0:11:32(136) 0:38:55( 16 ) 0:50:27( 40 ) 0:28:15(235) 0:18:24
106 98   542 Schulz, Henning Olbernhau 82 TM20 17   1:18:43 0:10:44( 96 ) 0:41:46( 95 ) 0:52:30( 89 ) 0:26:13(134) 0:18:25
107 99   1004 Niehle, Dirl   67 TM35 17   1:18:44 0:12:12(190) 0:38:10( 7 ) 0:50:22( 36 ) 0:28:22(237) 0:18:26
108 100   595 Horn, Rocco Leipzig 66 TM35 18   1:18:45 0:13:37(301) 0:40:55( 63 ) 0:54:32(157) 0:24:13( 58 ) 0:18:27
109 101   601 Petereit, Markus Leipzig 66 TM35 19   1:18:50 0:12:43(227) 0:39:28( 26 ) 0:52:11( 76 ) 0:26:39(162) 0:18:32
109 101   654 Schubert, Steffen DOC 66 TM35 19   1:18:50 0:12:57(246) 0:41:16( 73 ) 0:54:13(139) 0:24:37( 69 ) 0:18:32
111 103   677 Holzmann, J√∂rg LG Taucha 63 TM40 10   1:18:54 0:12:34(216) 0:39:46( 35 ) 0:52:20( 87 ) 0:26:34(157) 0:18:36
112 104   582 Lehmann, Uwe Kleinkmehlen 66 TM35 21   1:18:56 0:11:25(134) 0:39:21( 21 ) 0:50:46( 50 ) 0:28:10(229) 0:18:38
113 105   1085 Eisenschmidt, Steffen   80 TM25 24   1:18:57 0:11:00(103) 0:39:19( 20 ) 0:50:19( 32 ) 0:28:38(248) 0:18:39
114 106   903 Friedla, Alexander Leipzig 74 TM30 16   1:18:58 0:11:33(137) 0:40:15( 46 ) 0:51:48( 67 ) 0:27:10(176) 0:18:40
115 107   837 Bartholom√§us, Dirk Post SV Leipzig 70 TM35 22   1:19:00 0:08:28( 17 ) 0:41:56(102) 0:50:24( 39 ) 0:28:36(245) 0:18:42
116 108   614 M√∂ller, Heiner Chemnitz 82 TM20 18   1:19:02 0:11:07(114) 0:40:33( 54 ) 0:51:40( 62 ) 0:27:22(190) 0:18:44
117 109   943 M√ľnch, Felix Leipzig 76 TM25 25   1:19:05 0:11:41(146) 0:42:40(122) 0:54:21(149) 0:24:44( 72 ) 0:18:47
118 110   647 Polster, Heiko Belzig 68 TM35 23   1:19:06 0:13:30(291) 0:40:33( 55 ) 0:54:03(132) 0:25:03( 86 ) 0:18:48
119 111   510 V√∂rkel, Rolf perdata 59 TM45 5   1:19:07 0:00:00 0:00:00 0:53:20(115) 0:25:47(115) 0:18:49
120 112   961 Hofmann, Holm   78 TM25 26   1:19:13 0:11:28(135) 0:41:54(100) 0:53:22(116) 0:25:51(120) 0:18:55
121 113   653 Puscholt, Roald Rennraupe 71 TM30 17   1:19:15 0:11:46(151) 0:41:33( 84 ) 0:53:19(114) 0:25:56(125) 0:18:57
121 113   735 Steinert, Reyk just for fun 68 TM35 24   1:19:15 0:00:00 0:00:00 0:52:33( 90 ) 0:26:42(164) 0:18:57
123 115   566 Witte, Christian Eberswalder SV Empor 75 TM30 18   1:19:16 0:12:07(183) 0:42:13(108) 0:54:20(148) 0:24:56( 79 ) 0:18:58
124 116   729 Scheibe, Fabian R√§pitz 84 TM20 19   1:19:17 0:00:00 0:00:00 0:52:16( 81 ) 0:27:01(172) 0:18:59
125 117   1011 Balke, Daniel   76 TM25 27   1:19:18 0:09:57( 59 ) 0:44:24(175) 0:54:21(149) 0:24:57( 80 ) 0:19:00
126 118   951 Dietzsch, Christian Dobersch√ľtz 78 TM25 28   1:19:20 0:08:47( 24 ) 0:43:11(139) 0:51:58( 73 ) 0:27:22(190) 0:19:02
127 119   637 Haupt, Veikko Leipzig 60 TM45 6   1:19:24 0:11:54(161) 0:42:17(110) 0:54:11(136) 0:25:13( 90 ) 0:19:06
127 119   910 R√ľstau, Steve Leipzig 82 TM20 20   1:19:24 0:11:42(147) 0:42:59(132) 0:54:41(163) 0:24:43( 71 ) 0:19:06
129 121   751 Glauche, Lutz Leipzig 59 TM45 7   1:19:29 0:00:00 0:00:00 0:51:06( 57 ) 0:28:23(238) 0:19:11
130 122   707 Garn, Bernd Skiverein Sch√∂nheide 59 TM45 8   1:19:33 0:12:15(195) 0:39:39( 30 ) 0:51:54( 70 ) 0:27:39(200) 0:19:15
131 123   679 Kn√∂fel, Timo Leipzig 70 TM35 25   1:19:38 0:00:00 0:00:00 0:51:56( 72 ) 0:27:42(202) 0:19:20
132   9 925 Bauer, Antje   85 TW20   2 1:19:41 0:11:06(113) 0:41:13( 72 ) 0:52:19( 85 ) 0:27:22(188) 0:19:23
133 124   737 Wiegratz, S√∂ren Dresden 79 TM25 29   1:19:43 0:12:52(240) 0:42:58(131) 0:55:50(186) 0:23:53( 46 ) 0:19:25
134   10 907 Trache, Susann Team Trade Invest 75 TW30   1 1:19:44 0:12:05(179) 0:39:41( 31 ) 0:51:46( 65 ) 0:27:58(218) 0:19:26
135 125   980 Ludwig, Ralf SV M√ľhlbach 64 TM40 11   1:19:47 0:10:25( 80 ) 0:44:00(163) 0:54:25(155) 0:25:22( 96 ) 0:19:29
136 126   835 Schirmer, Uwe 1. Gr√ľnauer Fitness-Club 73 TM30 19   1:19:49 0:09:08( 38 ) 0:42:29(115) 0:51:37( 61 ) 0:28:12(233) 0:19:31
137 127   740 Stein, Albrecht Leipzig 70 TM35 26   1:19:56 0:11:44(148) 0:43:12(140) 0:54:56(174) 0:25:00( 84 ) 0:19:38
138 128   741 Dederke, Carsten LC Auensee Leipzig 82 TM20 21   1:20:02 0:12:35(218) 0:38:00( 6 ) 0:50:35( 46 ) 0:29:27(278) 0:19:44
139 129   768 Ficker, Michael Markkleeberg 78 TM25 30   1:20:05 0:12:02(173) 0:41:08( 70 ) 0:53:10(110) 0:26:55(170) 0:19:47
140 130   952 Friedrich, Andr√© Darmstadt 63 TM40 12   1:20:19 0:12:16(197) 0:40:48( 58 ) 0:53:04(106) 0:27:15(179) 0:20:01
141   11 965 Gerstenberg, Mary   85 TW20   3 1:20:20 0:00:00 0:00:00 0:53:48(123) 0:26:32(154) 0:20:02
141 131   967 Gawin, Wolf   69 TM35 27   1:20:20 0:11:13(120) 0:41:03( 65 ) 0:52:16( 81 ) 0:28:04(225) 0:20:02
143 132   997 G√∂hl, Matthias   63 TM40 13   1:20:21 0:13:25(285) 0:41:11( 71 ) 0:54:36(160) 0:25:45(114) 0:20:03
144 133   764 Porsche, Ingo Leipziger Triathlon e.V. 72 TM30 20   1:20:24 0:09:39( 51 ) 0:43:18(146) 0:52:57(104) 0:27:27(192) 0:20:06
145 134   709 Tr√∂ger, Thomas Skiverein Sch√∂nheide 59 TM45 9   1:20:26 0:12:14(194) 0:41:42( 91 ) 0:53:56(129) 0:26:30(150) 0:20:08
146 135   585 Richter, Martin Leipzig 85 TM20 22   1:20:34 0:00:00 0:00:00 0:00:00 0:00:00 0:20:16
147 136   648 Lehmann, Jonny CFC Leipzig 81 TM20 23   1:20:35 0:11:08(116) 0:45:28(199) 0:56:36(199) 0:23:59( 49 ) 0:20:17
148 137   800 Fr√∂hlich, Peter Leipzig 66 TM35 28   1:20:39 0:13:50(317) 0:42:25(113) 0:56:15(191) 0:24:24( 60 ) 0:20:21
149   12 695 Most, Yvonne Leipzig 64 TW40   1 1:20:42 0:00:00 0:00:00 0:54:32(157) 0:26:10(129) 0:20:24
150 138   560 Gutscher, Jan Markkleeberg 83 TM20 24   1:20:46 0:11:14(121) 0:42:59(132) 0:54:13(139) 0:26:33(156) 0:20:28
151 139   673 Kluge, Stephan Leipzig 81 TM20 25   1:20:47 0:10:53(100) 0:43:14(144) 0:54:07(135) 0:26:40(163) 0:20:29
152 140   665 Beyer, Holger P√ľchau 59 TM45 10   1:20:51 0:13:34(297) 0:43:39(151) 0:57:13(221) 0:23:38( 35 ) 0:20:33
153 141   816 P√∂tzsch, Axel Jugendclub Schrebitz 75 TM30 21   1:20:53 0:13:29(289) 0:41:48( 96 ) 0:55:17(179) 0:25:36(109) 0:20:35
154 142   691 Mahlig, Maik Eisleben 65 TM40 14   1:20:56 0:12:01(171) 0:42:54(129) 0:54:55(173) 0:26:01(126) 0:20:38
155   13 500 Haase, Nadine 1. FC Lokomotive Leipzig e.V. 79 TW25   4 1:20:58 0:09:04( 32 ) 0:41:36( 87 ) 0:50:40( 47 ) 0:30:18(304) 0:20:40
156 143   724 Richter, Andr√© sst 63 TM40 15   1:20:59 0:11:45(150) 0:40:09( 43 ) 0:51:54( 70 ) 0:29:05(267) 0:20:41
157 144   875 Agsten, Sven Leipzig 71 TM30 22   1:21:00 0:11:03(108) 0:43:42(154) 0:54:45(167) 0:26:15(136) 0:20:42
158 145   587 Flade, Silvio Leipzig 68 TM35 29   1:21:02 0:11:35(140) 0:43:12(142) 0:54:47(170) 0:26:15(136) 0:20:44
159 146   550 Fritsch, Stephan Bergsportverein Leipzig Mitte 81 TM20 26   1:21:05 0:10:26( 81 ) 0:43:56(160) 0:54:22(152) 0:26:43(165) 0:20:47
160   14 982 Franz, Birgit SC DHfK Leipzig 62 TW40   2 1:21:08 0:10:24( 78 ) 0:44:14(170) 0:54:38(162) 0:26:30(150) 0:20:50
161 147   622 Lentwojt, Klaus Hooters 60 TM45 11   1:21:09 0:13:13(271) 0:41:03( 65 ) 0:54:16(144) 0:26:53(169) 0:20:51
161 147   762 Holesch, Uwe-Jens SG LVB 61 TM40 16   1:21:09 0:12:20(202) 0:43:59(162) 0:56:19(192) 0:24:50( 76 ) 0:20:51
163 149   1082 Rab√§usch, Ole   70 TM35 30   1:21:11 0:00:00 0:00:00 0:57:11(218) 0:24:00( 50 ) 0:20:53
164 150   876 Reichel, Enrico Markranst√§dt 70 TM35 31   1:21:12 0:12:54(242) 0:42:30(116) 0:55:24(180) 0:25:48(117) 0:20:54
165 151   606 Beer, Matthias Leipzig 83 TM20 27   1:21:13 0:10:09( 65 ) 0:41:22( 77 ) 0:51:31( 60 ) 0:29:42(286) 0:20:55
165 151   760 George, Steffen Spiderman Guben 73 TM30 23   1:21:13 0:09:28( 45 ) 0:42:47(125) 0:52:15( 80 ) 0:28:58(263) 0:20:55
167 153   1087 Nitschke, S√∂ren   79 TM25 31   1:21:16 0:00:00 0:00:00 0:54:57(175) 0:26:19(139) 0:20:58
168 154   649 Reetz, Alexander TSV Monstab-L√∂dla 86 mJun 8   1:21:26 0:12:04(177) 0:41:23( 78 ) 0:53:27(117) 0:27:59(221) 0:21:08
169 155   812 Kretzschmer, Sascha TC Delitzsch 77 TM25 32   1:21:30 0:12:00(169) 0:44:07(165) 0:56:07(190) 0:25:23( 97 ) 0:21:12
169   15 813 Vogel, Yvonne TC Delitzsch 79 TW25   5 1:21:30 0:09:40( 52 ) 0:44:18(173) 0:53:58(130) 0:27:32(196) 0:21:12
171   16 639 Ehmen, Kristina Leipzig 81 TW20   4 1:21:32 0:09:52( 55 ) 0:44:20(174) 0:54:12(137) 0:27:20(186) 0:21:14
172 156   1015 Hilbrecht, Martin   77 TM25 33   1:21:35 0:09:58( 60 ) 0:47:21(245) 0:57:19(226) 0:24:16( 59 ) 0:21:17
173 157   887 Lindner, Manfred SC-Riesa 52 TM50 4   1:21:38 0:13:32(293) 0:41:17( 75 ) 0:54:49(171) 0:26:49(167) 0:21:20
174 158   897 Kinkel, Volkmar Team weber-rohrleitungsbau 54 TM50 5   1:21:39 0:12:42(226) 0:41:39( 89 ) 0:54:21(149) 0:27:18(184) 0:21:21
175 159   900 Skopnik, Nico ESV Lok Beucha 73 TM30 24   1:21:42 0:11:46(151) 0:42:13(108) 0:53:59(131) 0:27:43(204) 0:21:24
176 160   745 Knopke, Andreas Plauen 76 TM25 34   1:21:46 0:12:46(231) 0:40:31( 53 ) 0:53:17(112) 0:28:29(240) 0:21:28
177 161   1009 Walter, Tino   84 TM20 28   1:21:47 0:00:00 0:00:00 0:54:37(161) 0:27:10(176) 0:21:29
178 162   742 Schliefke, Andreas Seesportclub Leipzig 66 TM35 32   1:21:54 0:09:07( 36 ) 0:44:36(178) 0:53:43(121) 0:28:11(231) 0:21:36
179 163   643 M√ľller, Dieter TC Backnang 64 TM40 17   1:21:56 0:00:00 0:00:00 0:52:33( 90 ) 0:29:23(275) 0:21:38
180 164   721 Schlag, Norman SG LVB e.V. Kanurennsport 81 TM20 29   1:21:59 0:09:06( 34 ) 0:42:36(119) 0:51:42( 63 ) 0:30:17(303) 0:21:41
181 165   1014 Golatowski, Stefan   77 TM25 35   1:22:01 0:12:29(211) 0:39:44( 34 ) 0:52:13( 79 ) 0:29:48(291) 0:21:43
182 166   664 Beyer, Peter Leipzig 81 TM20 30   1:22:24 0:00:00 0:00:00 0:57:03(214) 0:25:21( 95 ) 0:22:06
183 167   690 Hoffmann, Uwe Turbine Halle 44 TM60 1   1:22:25 0:14:25(357) 0:43:00(134) 0:57:25(227) 0:25:00( 83 ) 0:22:07
184 168   761 Sporleder, Enrico Hohenkammer 78 TM25 36   1:22:28 0:00:00 0:00:00 0:55:52(187) 0:26:36(159) 0:22:10
185 169   518 Steinhorst, Martin Bad Neustadt 63 TM40 18   1:22:31 0:00:00 0:00:00 0:52:59(105) 0:29:32(281) 0:22:13
186   17 776 Quietzsch, Nadine Leipzig 79 TW25   6 1:22:34 0:00:00 0:00:00 0:53:40(119) 0:28:54(260) 0:22:16
187   18 774 Tsch√∂pe, Franzy Triathlonverein 65 TW40   3 1:22:52 0:00:00 0:00:00 0:57:17(224) 0:25:35(104) 0:22:34
188 170   1089 Schneider, J√∂rg   63 TM40 19   1:23:07 0:00:00 0:00:00 0:54:28(156) 0:28:39(250) 0:22:49
189 171   722 Mai, Tobias SV Handwerk Leipzig e.V. 67 TM35 33   1:23:12 0:08:48( 25 ) 0:43:52(156) 0:52:40( 97 ) 0:30:32(315) 0:22:54
190 172   1096 Kowasch, Fred Berlin 65 TM40 20   1:23:22 0:12:05(179) 0:41:42( 92 ) 0:53:47(122) 0:29:35(284) 0:23:04
191 173   765 Mauermann, Dirk Leipzig 76 TM25 37   1:23:23 0:00:00 0:00:00 0:54:06(134) 0:29:17(271) 0:23:05
192 174   987 Rackow, Ulf   74 TM30 25   1:23:26 0:12:22(205) 0:43:34(149) 0:55:56(189) 0:27:30(194) 0:23:08
193 175   683 Hopp, Michael Athletik und Fitnesverein Gr√§fenhainichen 77 TM25 38   1:23:29 0:13:00(249) 0:40:55( 62 ) 0:53:55(128) 0:29:34(282) 0:23:11
194 176   561 Gutscher, Frank-Uwe Markkleeberg 57 TM45 12   1:23:32 0:11:12(119) 0:46:25(217) 0:57:37(230) 0:25:55(124) 0:23:14
195 177   780 Helfricht, Sven Tennisclub Frankenberg 73 TM30 26   1:23:33 0:13:59(325) 0:43:42(155) 0:57:41(234) 0:25:52(122) 0:23:15
196 178   779 Tsch√∂pe, Tom Bruder du hast keine Chance!! 71 TM30 27   1:23:36 0:14:11(340) 0:44:27(176) 0:58:38(265) 0:24:58( 81 ) 0:23:18
197 179   807 Muth, Uwe LG Taucha / Leipzig 60 TM45 13   1:23:39 0:00:00 0:00:00 0:59:06(280) 0:24:33( 66 ) 0:23:21
198 180   581 Jakob, Gerd Markranst√§dt 69 TM35 34   1:23:44 0:12:26(208) 0:43:27(148) 0:55:53(188) 0:27:51(212) 0:23:26
199 181   1080 Rillich, Jana   75 TM30 28   1:23:50 0:00:00 0:00:00 0:58:11(246) 0:25:39(111) 0:23:32
200   19 733 Friedrich, Susan Leipziger Seesportclub 74 TW30   2 1:23:51 0:09:33( 48 ) 0:43:03(137) 0:52:36( 95 ) 0:31:15(341) 0:23:33
201 182   815 M√ľller, Hendryk Jugendclub Schrebitz 75 TM30 29   1:23:54 0:12:57(246) 0:42:17(110) 0:55:14(177) 0:28:40(251) 0:23:36
202 183   627 Thalheim, Detlef SG LVB 56 TM45 14   1:23:56 0:10:29( 85 ) 0:00:00 0:00:00 0:00:00 0:23:38
203 184   734 B√ľttner, Dirk Leipziger Seesportclub 68 TM35 35   1:23:58 0:12:30(213) 0:44:11(167) 0:56:41(201) 0:27:17(180) 0:23:40
204 185   830 Unger, J√ľrgen   45 TM60 2   1:24:03 0:11:52(158) 0:42:53(128) 0:54:45(167) 0:29:18(273) 0:23:45
205 186   747 Reim, Martin HSG R√ľckmarsdorf 85 TM20 31   1:24:13 0:00:00 0:00:00 0:57:59(239) 0:26:14(135) 0:23:55
206 187   553 Richter, Nico Leipzig 81 TM20 32   1:24:14 0:12:40(223) 0:43:52(158) 0:56:32(197) 0:27:42(202) 0:23:56
207 188   855 Sohr, Stephan unorganisierter Haufen 59 TM45 15   1:24:15 0:12:51(238) 0:45:54(209) 0:58:45(270) 0:25:30( 99 ) 0:23:57
208   20 857 Lindner, Antje SC Riesa / Triathlon 79 TW25   7 1:24:20 0:00:00 0:00:00 0:53:09(109) 0:31:11(338) 0:24:02
209 189   864 Michler, Karsten Leipziger Seesportclub 63 TM40 21   1:24:29 0:13:09(263) 0:45:31(200) 0:58:40(266) 0:25:49(119) 0:24:11
210 190   842 Kusche, Niels Rennraupe 73 TM30 30   1:24:30 0:11:34(138) 0:41:44( 94 ) 0:53:18(113) 0:31:12(339) 0:24:12
211 191   538 Behrendt, Rene Team Kirow 63 TM40 22   1:24:33 0:14:17(348) 0:42:45(124) 0:57:02(213) 0:27:31(195) 0:24:15
212 192   574 Seidler, Sven Leipzig-Berlin Trias 76 TM25 39   1:24:39 0:10:38( 93 ) 0:45:51(208) 0:56:29(196) 0:28:10(229) 0:24:21
213 193   549 Bechstein, Michael TABBS Vital 65 TM40 23   1:24:40 0:00:00 0:00:00 0:57:39(233) 0:27:01(172) 0:24:22
214 194   524 Pf√ľlb, Markus das erste mal 67 TM35 36   1:24:43 0:14:08(336) 0:45:35(201) 0:59:43(297) 0:25:00( 84 ) 0:24:25
214 194   710 Weidlich, Johannes Skiverein Sch√∂nheide 48 TM55 1   1:24:43 0:14:03(329) 0:44:08(166) 0:58:11(246) 0:26:32(154) 0:24:25
216 196   990 Lutschin, Jens Post SV Leipzig 64 TM40 24   1:24:44 0:09:06( 34 ) 0:00:00 0:00:00 0:00:00 0:24:26
217 197   825 Dragoschy, Marco Scheibe-Alsbach 78 TM25 40   1:24:46 0:12:11(189) 0:41:39( 89 ) 0:53:50(124) 0:30:56(330) 0:24:28
218   21 701 Lewtschenko, Vera SV Automation 84 TW20   5 1:24:48 0:07:30( 6 ) 0:45:07(191) 0:52:37( 96 ) 0:32:11(369) 0:24:30
219 198   995 Liebmann, J√∂rg   65 TM40 25   1:24:49 0:11:04(110) 0:44:03(164) 0:55:07(176) 0:29:42(286) 0:24:31
220 199   551 Thiele, Knut Team Kirow 53 TM50 6   1:24:54 0:13:50(317) 0:43:22(147) 0:57:12(220) 0:27:42(201) 0:24:36
221   22 804 L√∂ffler, Corina Leipzig 76 TW25   8 1:24:56 0:11:00(103) 0:43:12(140) 0:54:12(137) 0:30:44(322) 0:24:38
222 200   824 Schleinitz, Till TJ Wheels 76 TM25 41   1:24:58 0:13:07(260) 0:45:24(198) 0:58:31(263) 0:26:27(147) 0:24:40
223   23 906 Skopnik, Katja ESV Lok Beucha 75 TW30   3 1:24:59 0:13:24(284) 0:43:37(150) 0:57:01(211) 0:27:58(218) 0:24:41
224 201   521 Manske, Lutz Leipzig 63 TM40 26   1:25:02 0:13:32(293) 0:44:28(177) 0:58:00(240) 0:27:02(174) 0:24:44
225 202   778 Tsch√∂pe, Tilo Knabenchor Dresden 67 TM35 37   1:25:04 0:14:28(361) 0:44:14(169) 0:58:42(268) 0:26:22(140) 0:24:46
226 203   656 Schulz, Matthias Leipzig 78 TM25 42   1:25:06 0:00:00 0:00:00 0:55:45(184) 0:29:21(274) 0:24:48
226 203   663 Ostwald, Ulf SSV Markranst√§dt 65 TM40 27   1:25:06 0:13:58(323) 0:42:35(118) 0:56:33(198) 0:28:33(242) 0:24:48
228   24 898 Seyfarth, Nicole ESV Lok Beucha 82 TW20   6 1:25:11 0:13:07(260) 0:43:52(156) 0:56:59(209) 0:28:12(233) 0:24:53
229 205   786 R√∂hner, J√∂rg Team Rennraupe 72 TM30 31   1:25:12 0:11:47(153) 0:45:24(197) 0:57:11(218) 0:28:01(222) 0:24:54
230 206   984 Pagels, Ralf   63 TM40 28   1:25:14 0:13:40(306) 0:45:59(210) 0:59:39(296) 0:25:35(104) 0:24:56
231 207   537 Brakemeier, J√∂rg Leipzig 70 TM35 38   1:25:24 0:00:00 0:00:00 0:00:00 0:00:00 0:25:06
231 207   1098 Wiemann, Markus   71 TM30 32   1:25:24 0:12:01(171) 0:45:37(202) 0:57:38(231) 0:27:46(207) 0:25:06
233 209   688 Porzucek, Dark Transpiration S√ľd 63 TM40 29   1:25:28 0:13:20(280) 0:47:20(244) 1:00:40(323) 0:24:48( 74 ) 0:25:10
234 210   508 Aurich, Michael Leipzig 82 TM20 33   1:25:30 0:00:00 0:00:00 0:58:16(250) 0:27:14(178) 0:25:12
235 211   859 Wagner, Tobias Leipzig 81 TM20 34   1:25:33 0:13:38(303) 0:46:47(227) 1:00:25(316) 0:25:08( 87 ) 0:25:15
236 212   631 Bartholomay, Ronny Dresden 75 TM30 33   1:25:35 0:00:00 0:00:00 0:57:38(231) 0:27:57(216) 0:25:17
237 213   579 Kutzner, Raiko Markranst√§dt 83 TM20 35   1:25:36 0:12:21(204) 0:46:49(228) 0:59:10(281) 0:26:26(146) 0:25:18
238 214   596 Schneider, Stefan Leipzig 76 TM25 43   1:25:37 0:13:44(311) 0:43:16(145) 0:57:00(210) 0:28:37(247) 0:25:19
239 215   516 Lohse, Dieter Berlin 48 TM55 2   1:25:43 0:14:08(336) 0:43:02(136) 0:57:10(217) 0:28:33(242) 0:25:25
240 216   689 Reichel, Torsten Leipzig 73 TM30 34   1:25:50 0:11:48(154) 0:45:05(190) 0:56:53(207) 0:28:57(262) 0:25:32
241 217   913 Sandig, Volker Tennisclub Frankenberg 61 TM40 30   1:25:51 0:12:46(231) 0:45:07(193) 0:57:53(238) 0:27:58(218) 0:25:33
242 218   975 Herrmann, Aleander Team Trade Invest 72 TM30 35   1:25:57 0:12:53(241) 0:40:22( 50 ) 0:53:15(111) 0:32:42(377) 0:25:39
243   25 607 Zschocke, Angelika Napps√ľlzen 84 TW20   7 1:26:01 0:11:37(143) 0:42:56(130) 0:54:33(159) 0:31:28(350) 0:25:43
243 219   1094 Richter, Jan   74 TM30 36   1:26:01 0:00:00 0:00:00 0:59:49(299) 0:26:12(132) 0:25:43
245 220   558 Wiegner, Matthias Taucha 62 TM40 31   1:26:04 0:00:00 0:00:00 0:58:14(249) 0:27:50(211) 0:25:46
246 221   1006 Didt, Christian   81 TM20 36   1:26:09 0:11:56(164) 0:47:22(247) 0:59:18(286) 0:26:51(168) 0:25:51
247 222   658 Martius, Georg Leipzig 80 TM25 44   1:26:17 0:00:00 0:00:00 0:55:27(182) 0:30:50(327) 0:25:59
248 223   713 Neubert, Gerd NBT - Potsdam 51 TM50 7   1:26:19 0:10:06( 63 ) 0:46:30(222) 0:56:36(199) 0:29:43(289) 0:26:01
249 224   666 Scharf, Marco Sportstudio Sch√∂nefeld 72 TM30 37   1:26:24 0:00:00 0:00:00 0:58:51(272) 0:27:33(197) 0:26:06
250 225   799 Fleischer, Gerd SV Blau-Wei√ü Lindenau 75 TM30 38   1:26:26 0:13:45(312) 0:44:40(179) 0:58:25(259) 0:28:01(222) 0:26:08
251 226   1095 Foltin, Dirk   66 TM35 39   1:26:31 0:13:11(268) 0:45:08(194) 0:58:19(254) 0:28:12(232) 0:26:13
252   26 712 Tr√∂ger, Rita Skiverein Sch√∂nheide 60 TW45   1 1:26:33 0:13:05(256) 0:45:21(196) 0:58:26(260) 0:28:07(227) 0:26:15
253 227   781 Didt, Daniel Leipzig 74 TM30 39   1:26:41 0:10:31( 86 ) 0:48:52(268) 0:59:23(291) 0:27:18(183) 0:26:23
254 228   939 Bierl, Peter   54 TM50 8   1:26:43 0:13:02(251) 0:47:03(237) 1:00:05(303) 0:26:38(160) 0:26:25
255 229   590 Rath, Ralf Chemnitz 61 TM40 32   1:26:47 0:00:00 0:00:00 1:00:23(313) 0:26:24(142) 0:26:29
256 230   938 Kurt, Michael Leipzig 58 TM45 16   1:26:49 0:00:00 0:00:00 0:58:52(273) 0:27:57(217) 0:26:31
257 231   992 Schmidt, Roland   58 TM45 17   1:26:50 0:13:39(305) 0:44:13(168) 0:57:52(237) 0:28:58(263) 0:26:32
258   27 981 Ludwig, Petra SV M√ľhlbach 65 TW40   4 1:26:52 0:11:05(112) 0:46:13(214) 0:57:18(225) 0:29:34(283) 0:26:34
259 232   646 Stra√üer, Andr√© HL M√ľhlbeck 69 TM35 40   1:26:56 0:12:32(214) 0:44:17(172) 0:56:49(204) 0:30:07(302) 0:26:38
259 232   795 H√§rter, Steffen Leipzig 63 TM40 33   1:26:56 0:12:06(181) 0:43:41(152) 0:55:47(185) 0:31:09(337) 0:26:38
261 234   612 Baumbach, Ingolf Leipziger Pinguine e.V. 53 TM50 9   1:26:59 0:10:43( 95 ) 0:46:53(231) 0:57:36(229) 0:29:23(275) 0:26:41
262 235   1078 Hartmann, Tony   78 TM25 45   1:27:05 0:00:00 0:00:00 0:59:02(278) 0:28:03(224) 0:26:47
263 236   978 Witty, Matthias   80 TM25 46   1:27:06 0:13:27(288) 0:47:50(254) 1:01:17(332) 0:25:49(118) 0:26:48
264 237   755 Jorzick, Thorsten Halle 70 TM35 41   1:27:08 0:13:16(275) 0:45:45(207) 0:59:01(277) 0:28:07(227) 0:26:50
265   28 706 Gierth, Claudia   85 TW20   8 1:27:13 0:12:03(174) 0:46:25(217) 0:58:28(261) 0:28:45(256) 0:26:55
266 238   705 Gro√üer, Norman   85 TM20 37   1:27:15 0:12:03(174) 0:46:25(217) 0:58:28(261) 0:28:47(257) 0:26:57
266   29 758 Erfurth, D√∂rthe Leipzig 78 TW25   9 1:27:15 0:13:02(251) 0:46:19(215) 0:59:21(289) 0:27:54(214) 0:26:57
268 239   877 Repenning, J√∂rg M√ľgeln/Oetzsch 61 TM40 34   1:27:16 0:00:00 0:00:00 1:01:42(338) 0:25:34(103) 0:26:58
269 240   501 Treibmann, Peter USC Leipzig OL 59 TM45 18   1:27:22 0:14:55(383) 0:46:01(211) 1:00:56(330) 0:26:26(145) 0:27:04
270 241   844 Karlas, Thomas Uni Leipzig 81 TM20 38   1:27:25 0:13:09(263) 0:47:44(252) 1:00:53(329) 0:26:32(153) 0:27:07
271 242   870 Fritsch, J√ľrgen Heidelberg Postpress 57 TM45 19   1:27:26 0:13:14(272) 0:46:21(216) 0:59:35(295) 0:27:51(212) 0:27:08
272 243   756 Woitas, Sebastian Landsberg 78 TM25 47   1:27:27 0:10:34( 89 ) 0:44:41(180) 0:55:15(178) 0:32:12(370) 0:27:09
273 244   512 Ebert, Jens-Uwe Leipzig 66 TM35 42   1:27:28 0:10:26( 81 ) 0:44:15(171) 0:54:41(163) 0:32:47(382) 0:27:10
274 245   772 Ackermann, J√∂rg Bad Breisig 67 TM35 43   1:27:29 0:13:46(313) 0:43:00(134) 0:56:46(203) 0:30:43(321) 0:27:11
275 246   802 Kolberg, Jens Eilenburg 74 TM30 40   1:27:33 0:12:51(238) 0:46:55(233) 0:59:46(298) 0:27:47(208) 0:27:15
276   30 638 Rossek, Sylke Wasserfreunde Brandenburg 68 TW35   1 1:27:35 0:11:52(158) 0:46:26(220) 0:58:18(253) 0:29:17(271) 0:27:17
277 247   641 Poike, Andreas Chemnitz 70 TM35 44   1:27:40 0:09:10( 40 ) 0:49:25(275) 0:58:35(264) 0:29:05(267) 0:27:22
278 248   1012 Wendland, Thomas   65 TM40 35   1:27:41 0:00:00 0:00:00 0:56:51(206) 0:30:50(326) 0:27:23
279 249   811 Braasch, Uwe Leipzig 67 TM35 45   1:27:43 0:13:10(266) 0:46:57(235) 1:00:07(305) 0:27:36(199) 0:27:25
280 250   882 Hell, Karsten TriTeam Triftern 67 TM35 46   1:27:44 0:12:27(209) 0:43:55(159) 0:56:22(194) 0:31:22(349) 0:27:26
281 251   626 Kontny, Ralf Grimma 71 TM30 41   1:27:48 0:12:43(227) 0:47:21(245) 1:00:04(302) 0:27:44(205) 0:27:30
282 252   867 Reutter, Werner USC Leipzig 47 TM55 3   1:27:50 0:15:14(388) 0:45:14(195) 1:00:28(317) 0:27:22(188) 0:27:32
283 253   698 Juhrs, Ronald Leipzig 59 TM45 20   1:27:52 0:10:08( 64 ) 0:49:09(271) 0:59:17(284) 0:28:35(244) 0:27:34
284 254   541 Berschik, Stefan Wir 95 Vier 68 TM35 47   1:27:58 0:12:34(216) 0:45:38(205) 0:58:12(248) 0:29:46(290) 0:27:40
285 255   920 Fobe, Klaus SG Olympia 1896 Leipzig 54 TM50 10   1:28:01 0:12:03(174) 0:44:54(184) 0:56:57(208) 0:31:04(335) 0:27:43
286 256   840 Maurer, Peter Leipzig 72 TM30 42   1:28:02 0:10:18( 74 ) 0:48:02(259) 0:58:20(255) 0:29:42(286) 0:27:44
287   31 783 Pfeiffer, Peggy PSV Zittau e.V. Ski 81 TW20   9 1:28:04 0:11:50(156) 0:47:34(249) 0:59:24(292) 0:28:40(252) 0:27:46
288 257   964 Oertel, Torsten   66 TM35 48   1:28:06 0:14:27(360) 0:44:44(182) 0:59:11(282) 0:28:55(261) 0:27:48
289 258   932 Marr, Steffen Leipzig 62 TM40 36   1:28:15 0:00:00 0:00:00 1:02:44(347) 0:25:31(102) 0:27:57
290 259   918 Herrmann, Andr√© Zwolle 67 TM35 49   1:28:16 0:12:44(229) 0:45:07(191) 0:57:51(236) 0:30:25(308) 0:27:58
291 260   753 Meyer, Christian USV Halle 74 TM30 43   1:28:18 0:12:18(200) 0:41:36( 88 ) 0:53:54(127) 0:34:24(417) 0:28:00
292   32 696 Kittel, Mandy Leipzig 76 TW25   10 1:28:19 0:00:00 0:00:00 1:00:24(315) 0:27:55(215) 0:28:01
292 261   1075 Scheffler, Daniel   83 TM20 39   1:28:19 0:13:33(295) 0:47:27(248) 1:01:00(331) 0:27:19(185) 0:28:01
294   33 749 Struck, Katrin Leipzig 73 TW30   4 1:28:23 0:14:18(349) 0:00:00 0:00:00 0:00:00 0:28:05
295   34 528 Herfurth, Antje SV-04 Zwickau 72 TW30   5 1:28:35 0:12:20(202) 0:44:56(186) 0:57:16(223) 0:31:19(345) 0:28:17
296 262   763 Reichel, Bernd VS Markkranst√§dt 49 TM55 4   1:28:43 0:18:12(405) 0:47:47(253) 1:05:59(400) 0:22:44( 18 ) 0:28:25
297 263   996 Schmidt, Lutz   72 TM30 44   1:28:49 0:12:46(231) 0:46:08(213) 0:58:54(274) 0:29:55(295) 0:28:31
298 264   789 Helbig, Matthias Leipziger Seesportclub 55 TM50 11   1:28:50 0:11:15(123) 0:50:06(282) 1:01:21(333) 0:27:29(193) 0:28:32
299   35 883 Lindner, Elke SC-Riesa 57 TW45   2 1:28:53 0:00:00 0:00:00 0:56:49(204) 0:32:04(365) 0:28:35
300 265   959 Dossin, Falk   81 TM20 40   1:28:55 0:00:00 0:00:00 0:58:10(244) 0:30:45(323) 0:28:37
301 266   634 Michael, Bernd Gro√üp√∂sna 52 TM50 12   1:28:57 0:00:00 0:00:00 0:59:00(276) 0:29:57(299) 0:28:39
302 267   611 Harnisch, Thomas Leipzig 82 TM20 41   1:28:58 0:00:00 0:00:00 0:57:07(216) 0:31:51(360) 0:28:40
303 268   571 Mazny, Stephan Leipzig 81 TM20 42   1:28:59 0:11:23(133) 0:46:58(236) 0:58:21(256) 0:30:38(318) 0:28:41
303 268   700 Sch√§fer, Michael SSV Markranst√§dt 88 mJugA 5   1:28:59 0:00:00 0:00:00 0:55:25(181) 0:33:34(402) 0:28:41
305 270   534 Kirsch, Karsten Markkleeberg 72 TM30 45   1:29:01 0:00:00 0:00:00 0:56:24(195) 0:32:37(375) 0:28:43
306   36 851 Schindler, Kati Leipzig 81 TW20   10 1:29:05 0:12:06(181) 0:47:57(256) 1:00:03(301) 0:29:02(266) 0:28:47
307   37 726 Klose, Franziska SV Liebertwolkwitz 84 TW20   11 1:29:08 0:00:00 0:00:00 0:58:40(266) 0:30:28(310) 0:28:50
308 271   968 Bachmann, Alain   65 TM40 37   1:29:17 0:00:00 0:00:00 1:01:32(335) 0:27:45(206) 0:28:59
309 272   522 Wiedermann, Marco Leipzig 76 TM25 48   1:29:20 0:13:42(308) 0:46:56(234) 1:00:38(321) 0:28:42(253) 0:29:02
310 273   502 Saage, Volker Markranst√§dt 50 TM55 5   1:29:23 0:15:07(385) 0:45:38(204) 1:00:45(324) 0:28:38(249) 0:29:05
311 274   817 Reinhold, Lutz SV Zwickau von 1904 62 TM40 38   1:29:26 0:14:09(339) 0:44:49(183) 0:58:58(275) 0:30:28(310) 0:29:08
312 275   613 Zschocke, Ulrich Napps√ľlzen 55 TM50 13   1:29:32 0:11:02(105) 0:47:15(243) 0:58:17(252) 0:31:15(342) 0:29:14
313 276   893 Herrmann, Ralf Leipziger Seesportclub 60 TM45 21   1:29:35 0:12:13(191) 0:45:02(189) 0:57:15(222) 0:32:20(372) 0:29:17
314   38 886 B√∂hme, Grit Leipzig 70 TW35   2 1:29:38 0:11:03(108) 0:47:41(251) 0:58:44(269) 0:30:54(328) 0:29:20
314 277   979 Weise, Jens   69 TM35 50   1:29:38 0:11:39(144) 0:42:39(121) 0:54:18(146) 0:35:20(432) 0:29:20
316   39 782 Wittig, Alexandra Leipzig 77 TW25   11 1:29:46 0:13:16(275) 0:46:03(212) 0:59:19(287) 0:30:27(309) 0:29:28
317 278   562 Stadler, Jens Halle/Saale 73 TM30 46   1:29:48 0:13:33(295) 0:45:41(206) 0:59:14(283) 0:30:34(316) 0:29:30
318 279   839 Staake, Holger TC Leipzig / Beuchaa e.V. 66 TM35 51   1:29:52 0:11:15(123) 0:46:52(230) 0:58:07(242) 0:31:45(356) 0:29:34
319 280   526 Neumann, Manfred Wurzen 39 TM65 1   1:29:55 0:12:32(214) 0:45:37(202) 0:58:09(243) 0:31:46(357) 0:29:37
320 281   725 Richter, David Leipzig 87 mJun 9   1:30:02 0:11:36(141) 0:42:38(120) 0:54:14(141) 0:35:48(433) 0:29:44
321   40 847 Blumert, Conny Leipzig 79 TW25   12 1:30:05 0:09:05( 33 ) 0:47:37(250) 0:56:42(202) 0:33:23(398) 0:29:47
322 282   983 Kolbe, Matthias Chemnitz 73 TM30 47   1:30:06 0:13:47(314) 0:49:56(280) 1:03:43(359) 0:26:23(141) 0:29:48
323 283   805 Klein, Tilmann Leipzig 77 TM25 49   1:30:20 0:00:00 0:00:00 1:04:50(369) 0:25:30( 99 ) 0:30:02
324 284   600 Drechsler, Jens Leipzig 72 TM30 48   1:30:23 0:12:13(191) 0:46:52(229) 0:59:05(279) 0:31:18(343) 0:30:05
325 285   944 Escherich, Hans Uwe TSV 1893 Leipzig Wahren 63 TM40 39   1:30:25 0:14:14(345) 0:50:17(284) 1:04:31(365) 0:25:54(123) 0:30:07
326   41 831 Nowak, Stefanie Leipziger Triathlon e.V. 84 TW20   12 1:30:27 0:12:49(235) 0:50:30(287) 1:03:19(352) 0:27:08(175) 0:30:09
327 286   823 Steinbeck, Helge Leipzig 72 TM30 49   1:30:29 0:13:58(323) 0:47:55(255) 1:01:53(340) 0:28:36(245) 0:30:11
328 287   915 Wolke, Andreas BW Leipzig West 61 TM40 40   1:30:30 0:13:04(255) 0:46:29(221) 0:59:33(294) 0:30:57(331) 0:30:12
329 288   523 Amelung, Volker BSV Wei√üblau Allianz 72 TM30 50   1:30:32 0:13:05(256) 0:49:39(277) 1:02:44(347) 0:27:48(209) 0:30:14
330   42 977 Gratias, Elisa Gartenfreunde Dieskau 83 TW20   13 1:30:33 0:12:17(198) 0:46:30(223) 0:58:47(271) 0:31:46(357) 0:30:15
331   43 759 Zschocke, Christina Napps√ľlzen 82 TW20   14 1:30:37 0:10:59(101) 0:46:30(223) 0:57:29(228) 0:33:08(388) 0:30:19
332 289   672 Schwind, J√∂rg Leubnitz 67 TM35 52   1:30:42 0:00:00 0:00:00 1:00:22(312) 0:30:20(307) 0:30:24
333 290   988 Reichel, Christoph Loksche Halle 81 TM20 43   1:30:43 0:00:00 0:00:00 0:59:22(290) 0:31:21(347) 0:30:25
334   44 687 Rieger, Luise Braunschweig 83 TW20   15 1:30:52 0:13:17(277) 0:44:59(187) 0:58:16(250) 0:32:36(374) 0:30:34
335   45 548 Sch√∂nfeld, Janet Zwickau 79 TW25   13 1:30:54 0:00:00 0:00:00 0:58:10(244) 0:32:44(380) 0:30:36
336 291   728 M√ľller, Robert Markranst√§dt 84 TM20 44   1:30:58 0:13:06(258) 0:48:51(267) 1:01:57(342) 0:29:01(265) 0:30:40
337 292   754 Schlichting, Ingo Halle 66 TM35 53   1:31:04 0:13:06(258) 0:47:04(238) 1:00:10(307) 0:30:54(329) 0:30:46
338   46 901 Schreiber, Stefanie ESV Lok Beucha 89 wJugA   4 1:31:09 0:00:00 0:00:00 1:00:23(313) 0:30:46(324) 0:30:51
339 293   684 Galetzka, Christian   60 TM45 22   1:31:14 0:14:32(368) 0:47:05(239) 1:01:37(336) 0:29:37(285) 0:30:56
340   47 945 Zei√üig, Jana SG Adelsberg 76 TW25   14 1:31:16 0:14:35(372) 0:55:07(351) 1:09:42(443) 0:21:34( 9 ) 0:30:58
341 294   1092 Voigt, J√∂rg   63 TM40 41   1:31:21 0:00:00 0:00:00 1:01:55(341) 0:29:26(277) 0:31:03
342   48 956 M√ľnzner, Juliane   78 TW25   15 1:31:34 0:13:10(266) 0:44:55(185) 0:58:05(241) 0:33:29(399) 0:31:16
343 295   746 Zink, Michael USC-Leipzig (Basketball) 80 TM25 50   1:31:35 0:13:35(299) 0:51:49(306) 1:05:24(388) 0:26:11(131) 0:31:17
344 296   856 Lehmann, Steffen MDV 67 TM35 54   1:31:38 0:13:31(292) 0:49:23(273) 1:02:54(349) 0:28:44(255) 0:31:20
345 297   718 Lewtschenko, Viktor SV Automation 88 mJugA 6   1:31:39 0:08:13( 14 ) 0:44:41(180) 0:52:54(103) 0:38:45(465) 0:31:21
346 298   657 B√§de, Daniel Leipzig 77 TM25 51   1:31:42 0:00:00 0:00:00 0:58:24(257) 0:33:18(395) 0:31:24
347 299   896 Poppe, Marcus Team Trade Invest 72 TM30 51   1:31:44 0:13:48(316) 0:49:24(274) 1:03:12(351) 0:28:32(241) 0:31:26
348   49 659 Grei√ü, Anja Leipzig 76 TW25   16 1:31:47 0:00:00 0:00:00 1:02:18(343) 0:29:29(279) 0:31:29
349 300   873 Meyer, Philipp Leipzig 82 TM20 45   1:31:49 0:00:00 0:00:00 1:00:51(328) 0:30:58(332) 0:31:31
350 301   680 Schille, Sebastian SV Narsdorf 78 TM25 52   1:31:51 0:11:10(118) 0:51:33(302) 1:02:43(346) 0:29:08(269) 0:31:33
350 301   806 Rings, Daniel Physik Uni Leipzig 81 TM20 46   1:31:51 0:00:00 0:00:00 1:07:15(412) 0:24:36( 68 ) 0:31:33
352 303   697 M√ľller, Michael SG Reinsdorf 59 TM45 23   1:32:06 0:12:23(206) 0:49:03(270) 1:01:26(334) 0:30:40(320) 0:31:48
353 304   1081 Boeck, Matthias   55 TM50 14   1:32:08 0:11:55(163) 0:48:12(262) 1:00:07(305) 0:32:01(364) 0:31:50
354   50 554 Wittekind, Charlotte Hamburg 83 TW20   16 1:32:10 0:11:18(128) 0:48:47(266) 1:00:05(303) 0:32:05(367) 0:31:52
354 305   720 Saupe, Mike G√ľnthersdorf 74 TM30 52   1:32:10 0:13:42(308) 0:54:43(345) 1:08:25(430) 0:23:45( 38 ) 0:31:52
356   51 546 Schiele, Katja Leipzig 78 TW25   17 1:32:12 0:11:54(161) 0:42:50(126) 0:54:44(166) 0:37:28(455) 0:31:54
357 306   545 Schiele, Simon Leipzig 85 TM20 47   1:32:14 0:13:26(287) 0:47:11(241) 1:00:37(320) 0:31:37(352) 0:31:56
358 307   597 Billhardt, Sebastian Leipzig 80 TM25 53   1:32:18 0:12:08(184) 0:48:31(265) 1:00:39(322) 0:31:39(353) 0:32:00
359   52 993 Leopold, Annett   78 TW25   18 1:32:25 0:00:00 0:00:00 1:00:46(325) 0:31:39(353) 0:32:07
360 308   834 Krentz, Bernhard SG LVB 58 TM45 24   1:32:31 0:14:25(357) 0:48:10(260) 1:02:35(344) 0:29:56(297) 0:32:13
361 309   832 Dobroschke, Ralf-Peter SC Tierklinik 85 TM20 48   1:32:54 0:08:56( 27 ) 0:48:10(261) 0:57:06(215) 0:35:48(433) 0:32:36
362 310   505 Wetzelt, Michael Flussmeisterei 76 TM25 54   1:32:56 0:00:00 0:00:00 0:58:24(257) 0:34:32(419) 0:32:38
363   53 556 Ditschke, Katharina Leipzig 81 TW20   17 1:32:57 0:12:49(235) 0:45:00(188) 0:57:49(235) 0:35:08(430) 0:32:39
364 311   615 Melitz, Patrick Falkensee GSV 79 TM25 55   1:33:07 0:13:03(253) 0:43:58(161) 0:57:01(211) 0:36:06(437) 0:32:49
365   54 852 Stockmann, Susanne Marienberg 85 TW20   18 1:33:15 0:12:09(185) 0:48:02(258) 1:00:11(308) 0:33:04(384) 0:32:57
366   55 678 Luckanus, Kathleen LRV Wei√üenfels 86 wJun   2 1:33:16 0:00:00 0:00:00 1:04:53(370) 0:28:23(238) 0:32:58
367 312   874 Langenheim, Frank Leipzig 61 TM40 42   1:33:30 0:14:06(334) 0:51:07(297) 1:05:13(383) 0:28:17(236) 0:33:12
368   56 949 Mueller, Jutta Leipzig 74 TW30   6 1:33:32 0:00:00 0:00:00 1:00:46(325) 0:32:46(381) 0:33:14
369   57 822 Schubert, Franziska Leipzig 75 TW30   7 1:33:35 0:10:12( 67 ) 0:52:44(324) 1:02:56(350) 0:30:39(319) 0:33:17
370   58 555 Richter, Katrin Leipzig 74 TW30   8 1:33:46 0:11:07(114) 0:48:12(262) 0:59:19(287) 0:34:27(418) 0:33:28
371 313   969 K√∂pping, Andreas   61 TM40 43   1:33:47 0:08:17( 16 ) 0:52:00(311) 1:00:17(310) 0:33:30(400) 0:33:29
372 314   703 Lewtschenko, Grigori Gro√üp√∂sna 57 TM45 25   1:33:54 0:14:26(359) 0:50:39(291) 1:05:05(376) 0:28:49(259) 0:33:36
373 315   623 Langenheim, Ulf Leipzig 67 TM35 55   1:33:56 0:14:05(332) 0:51:03(296) 1:05:08(379) 0:28:48(258) 0:33:38
374   59 570 Zimmer, Ulrike WSV Asbach 76 TW25   19 1:34:02 0:13:12(269) 0:50:49(292) 1:04:01(362) 0:30:01(300) 0:33:44
375   60 557 Richter, Mechtild TSG Schkeuditz 48 TW55   1 1:34:03 0:15:29(393) 0:47:59(257) 1:03:28(355) 0:30:35(317) 0:33:45
376   61 797 Hannemann, Katrin Leipzig 76 TW25   20 1:34:05 0:13:25(285) 0:47:10(240) 1:00:35(318) 0:33:30(400) 0:33:47
376 316   798 Kienitz, Marco SG LVB 70 TM35 56   1:34:05 0:13:34(297) 0:47:15(242) 1:00:49(327) 0:33:16(393) 0:33:47
378 317   514 Fiebig, Marcus Leipzig 78 TM25 56   1:34:30 0:13:57(322) 0:54:58(350) 1:08:55(434) 0:25:35(104) 0:34:12
379 318   970 Kaufmann, Klaus SV Fortuna Leipzig 53 TM50 15   1:34:33 0:14:36(373) 0:50:27(285) 1:05:03(373) 0:29:30(280) 0:34:15
380 319   892 Aoki, Yoichi Chung Hyo Kampfkunst e.V. 78 TM25 57   1:34:34 0:15:09(386) 0:54:08(340) 1:09:17(435) 0:25:17( 92 ) 0:34:16
381 320   681 Buschmann, Winfried Grimma 57 TM45 26   1:34:42 0:15:05(384) 0:49:18(272) 1:04:23(364) 0:30:19(305) 0:34:24
382 321   769 Kr√ľger, Wilfried VS 52 TM50 16   1:34:44 0:15:20(389) 0:52:41(323) 1:08:01(424) 0:26:43(165) 0:34:26
383   62 711 Leistner, Andrea Skiverein Sch√∂nheide 60 TW45   3 1:34:46 0:00:00 0:00:00 1:00:36(319) 0:34:10(412) 0:34:28
384   63 564 Schenk, Elke Leipzig 58 TW45   4 1:34:52 0:12:55(244) 0:52:08(314) 1:05:03(373) 0:29:49(292) 0:34:34
385 322   503 Saage, Reiner Kitzen 62 TM40 44   1:34:53 0:14:45(378) 0:46:54(232) 1:01:39(337) 0:33:14(391) 0:34:35
386 323   862 Drescher, Frank Tabak-B√∂rse Drescher 62 TM40 45   1:35:04 0:00:00 0:00:00 1:05:08(379) 0:29:56(298) 0:34:46
386 323   863 Bauerschmidt, Thomas Tabak-B√∂rse Drescher 63 TM40 45   1:35:04 0:13:54(320) 0:51:15(300) 1:05:09(381) 0:29:55(295) 0:34:46
388   64 621 W√§chtler, Heike Leipzig 75 TW30   9 1:35:07 0:00:00 0:00:00 0:00:00 0:00:00 0:34:49
389 325   583 Walther, Alexander Leipzig 74 TM30 53   1:35:10 0:13:41(307) 0:46:37(226) 1:00:18(311) 0:34:52(425) 0:34:52
390   65 702 Lewtschenko, Irena SV Automation 59 TW45   5 1:35:22 0:13:29(289) 0:50:02(281) 1:03:31(356) 0:31:51(360) 0:35:04
391 326   504 Mehlhose, Maik Flussmeisterei 75 TM30 54   1:35:29 0:14:46(379) 0:50:51(293) 1:05:37(396) 0:29:52(293) 0:35:11
392   66 868 Jost, Stephanie   70 TW35   3 1:35:34 0:09:31( 46 ) 0:49:54(279) 0:59:25(293) 0:36:09(440) 0:35:16
393 327   1084 Brettschneider, Christian   80 TM25 58   1:35:38 0:00:00 0:00:00 1:05:36(395) 0:30:02(301) 0:35:20
394 328   849 Thurm, Mario Deutsche Telekom FH Leipzig 82 TM20 49   1:35:46 0:10:28( 83 ) 0:54:49(347) 1:05:17(386) 0:30:29(313) 0:35:28
395   67 636 B√∂ttger, Simone Beucha 62 TW40   5 1:35:54 0:13:56(321) 0:49:44(278) 1:03:40(358) 0:32:14(371) 0:35:36
396 329   833 Heine, Detlef Leipziger-Pinguine e.V. 58 TM45 27   1:36:02 0:14:12(341) 0:51:56(309) 1:06:08(403) 0:29:54(294) 0:35:44
397 330   676 Greschik, Robert Leipzig 79 TM25 59   1:36:03 0:12:38(220) 0:52:04(313) 1:04:42(367) 0:31:21(348) 0:35:45
398   68 838 Jeschek, Gabriele TC Leipzig / Beuchaa e.V. 70 TW35   4 1:36:05 0:10:37( 92 ) 0:52:44(324) 1:03:21(353) 0:32:44(379) 0:35:47
399 331   660 Sch√ľtz, Uwe Leipzig 59 TM45 28   1:36:19 0:14:29(363) 0:50:32(288) 1:05:01(372) 0:31:18(343) 0:36:01
400 332   976 J√§hnig, Marek Gartenfreunde Dieskau 80 TM25 60   1:36:21 0:14:16(347) 0:53:59(338) 1:08:15(429) 0:28:06(226) 0:36:03
401 333   577 Bartosch, Thomas Leipzig 72 TM30 55   1:36:25 0:00:00 0:00:00 1:04:21(363) 0:32:04(365) 0:36:07
402 334   640 Plei√üner, Dietmar Leipzig 42 TM60 3   1:36:30 0:13:43(310) 0:51:47(305) 1:05:30(392) 0:31:00(333) 0:36:12
403   69 592 Muth, Franziska SC DHFK Leipzig Synchron Schwimmen 84 TW20   19 1:36:39 0:09:12( 41 ) 0:51:01(295) 1:00:13(309) 0:36:26(444) 0:36:21
404 335   994 Thiel, Mario   76 TM25 61   1:36:48 0:13:22(282) 0:54:43(345) 1:08:05(425) 0:28:43(254) 0:36:30
405 336   878 Hippe, Volker SC DHfK Leipzig 89 mJugA 7   1:36:52 0:14:18(349) 0:55:17(353) 1:09:35(440) 0:27:17(180) 0:36:34
405 336   946 Schrade, Bodo Delitzsch 61 TM40 47   1:36:52 0:12:41(225) 0:46:36(225) 0:59:17(284) 0:37:35(456) 0:36:34
407   70 974 Mohr, Bettina LC Auensee Leipzig 49 TW55   2 1:36:53 0:00:00 0:00:00 1:02:41(345) 0:34:12(413) 0:36:35
408 338   743 Weise, Svend Leipzig 60 TM45 29   1:36:56 0:14:24(355) 0:53:18(330) 1:07:42(420) 0:29:14(270) 0:36:38
408 338   819 B√∂hme, Frank Leverkusen 66 TM35 57   1:36:56 0:10:18( 74 ) 0:53:19(331) 1:03:37(357) 0:33:19(396) 0:36:38
410 340   895 Micka, Thomas Team Trade Invest 71 TM30 56   1:37:08 0:13:18(278) 0:51:52(307) 1:05:10(382) 0:31:58(363) 0:36:50
411 341   624 Hermann, Olaf Leipzig 66 TM35 58   1:37:26 0:14:03(329) 0:55:35(358) 1:09:38(441) 0:27:48(209) 0:37:08
412   71 902 Charisius, Brigitte TRIAS Hildesheim 58 TW45   6 1:37:35 0:00:00 0:00:00 0:59:52(300) 0:37:43(458) 0:37:17
413   72 727 Herrmann, Esther SC DHfK 74 TW30   10 1:37:47 0:13:37(301) 0:51:39(303) 1:05:16(385) 0:32:31(373) 0:37:29
414 342   1091 Rauer, Uwe   75 TM30 57   1:37:55 0:14:15(346) 0:50:28(286) 1:04:43(368) 0:33:12(390) 0:37:37
415 343   552 Benndorf, Bj√∂rn Leipzig 82 TM20 50   1:37:58 0:15:12(387) 0:52:27(319) 1:07:39(418) 0:30:19(305) 0:37:40
416   73 559 Zupke, Diana Markkleeberg 70 TW35   5 1:37:59 0:13:19(279) 1:05:37(385) 1:18:56(476) 0:19:03( 3 ) 0:37:41
417 344   927 Kloss, Peter Delitzsch 69 TM35 59   1:38:01 0:13:47(314) 0:49:37(276) 1:03:24(354) 0:34:37(422) 0:37:43
418 345   771 Richter, Siegfried Markranst√§dt 40 TM65 2   1:38:06 0:14:28(361) 0:51:01(294) 1:05:29(390) 0:32:37(375) 0:37:48
419   74 989 R√∂ger, Juliane Besangen Trithlon 71 TW30   11 1:38:19 0:11:36(141) 0:52:09(315) 1:03:45(361) 0:34:34(420) 0:38:01
420   75 770 Weise, Sarina Leipzig 77 TW25   21 1:38:26 0:10:52( 99 ) 0:54:14(343) 1:05:06(378) 0:33:20(397) 0:38:08
421   76 916 Diersch, Cornelia Chemnitz 69 TW35   6 1:38:27 0:12:15(195) 0:53:08(329) 1:05:23(387) 0:33:04(384) 0:38:09
422 346   723 Bartzsch, Michael SV Handwerk Leipzig e.V. 59 TM45 30   1:38:31 0:13:08(262) 0:54:09(341) 1:07:17(413) 0:31:14(340) 0:38:13
423 347   880 Kretzschmar, Robby L.E. vital fitness 67 TM35 60   1:38:39 0:12:58(248) 0:54:40(344) 1:07:38(417) 0:31:01(334) 0:38:21
424 348   872 Lips, Sylvio Leipzig 61 TM40 48   1:38:47 0:14:12(341) 0:53:46(335) 1:07:58(423) 0:30:49(325) 0:38:29
425   77 535 Rodepeter, Dagmar Leipzig 75 TW30   12 1:38:54 0:13:09(263) 0:51:56(309) 1:05:05(376) 0:33:49(403) 0:38:36
426   78 610 Quast, Isabel Leipzig 78 TW25   22 1:39:02 0:00:00 0:00:00 0:00:00 0:00:00 0:38:44
427   79 973 M√ľller, Christiane   81 TW20   20 1:39:06 0:11:48(154) 0:53:26(332) 1:05:14(384) 0:33:52(404) 0:38:48
428 349   991 Brunner, Dietmar Post SV Chemnitz 44 TM60 4   1:39:08 0:14:38(375) 0:52:35(321) 1:07:13(411) 0:31:55(362) 0:38:50
429   80 941 Stuhlamnn, Corinna Markkleeberg 69 TW35   7 1:39:10 0:13:23(283) 0:54:04(339) 1:07:27(414) 0:31:43(355) 0:38:52
430 350   1093 Buschmann, Lutz   67 TM35 61   1:39:36 0:00:00 0:00:00 1:12:01(457) 0:27:35(198) 0:39:18
431 351   717 Hampel, Uwe Stollberg 68 TM35 62   1:39:39 0:14:31(366) 0:53:40(334) 1:08:11(428) 0:31:28(350) 0:39:21
432   81 828 Kirchner, B√§rbel SF Neukieritzsch 62 TW40   6 1:39:48 0:00:00 0:00:00 1:08:44(432) 0:31:04(335) 0:39:30
433 352   578 Schubert, Wolfgang Leipzig 51 TM50 17   1:39:56 0:14:49(381) 0:50:11(283) 1:05:00(371) 0:34:56(426) 0:39:38
434   82 775 Berger, Beate VS 55 TW50   1 1:39:59 0:00:00 0:00:00 1:09:30(439) 0:30:29(313) 0:39:41
435 353   792 Str√ľver, Karsten Leipzig 63 TM40 49   1:40:05 0:14:07(335) 0:51:55(308) 1:06:02(402) 0:34:03(406) 0:39:47
436 354   757 K√∂rner, Werner   39 TM65 3   1:40:07 0:14:00(326) 0:52:01(312) 1:06:01(401) 0:34:06(408) 0:39:49
437   83 652 Heyne, Claudia TSV Leipzig 76 e.V. 81 TW20   21 1:40:08 0:11:09(117) 0:53:55(336) 1:05:04(375) 0:35:04(428) 0:39:50
438 355   827 Kallenbach, Michael Mastodonia 80 TM25 62   1:40:09 0:11:21(130) 0:54:10(342) 1:05:31(393) 0:34:38(423) 0:39:51
439 356   950 Hammer, Tino Krostitz 80 TM25 63   1:40:11 0:13:36(300) 0:52:22(316) 1:05:58(399) 0:34:13(415) 0:39:53
440 357   869 Poppe, Gunder Team Trade Invest 49 TM55 6   1:40:13 0:18:30(406) 0:48:26(264) 1:06:56(408) 0:33:17(394) 0:39:55
441 358   739 G√∂pfarth, Rocco TC 65 TM40 50   1:40:16 0:17:00(400) 0:48:57(269) 1:05:57(398) 0:34:19(416) 0:39:58
442 359   719 Meier, Ronald SV Gr√ľn-Wei√ü Miltitz 57 TM45 31   1:40:21 0:12:00(169) 0:51:43(304) 1:03:43(359) 0:36:38(448) 0:40:03
443   84 808 Uhl, Veronika Dresden 71 TW30   13 1:40:26 0:15:41(398) 0:50:36(290) 1:06:17(404) 0:34:09(411) 0:40:08
444   85 682 Wolff, Renate Grimma 53 TW50   2 1:40:32 0:15:26(390) 0:52:23(317) 1:07:49(422) 0:32:43(378) 0:40:14
445 360   926 Bergelt, Andreas   53 TM50 18   1:40:58 0:14:19(351) 0:52:46(326) 1:07:05(410) 0:33:53(405) 0:40:40
446   86 699 Herrmann, Christine Dresden 77 TW25   23 1:41:15 0:13:14(272) 0:53:05(328) 1:06:19(406) 0:34:56(426) 0:40:57
447 361   667 Niemann, Dietmar Leipzig 55 TM50 19   1:41:24 0:14:13(343) 0:52:23(317) 1:06:36(407) 0:34:48(424) 0:41:06
448   87 536 Patz, Claudia TSV Leipzig 76 83 TW20   22 1:41:33 0:09:07( 36 ) 0:52:36(322) 1:01:43(339) 0:39:50(470) 0:41:15
449 362   962 Schneweis, J√∂rg USC Leipzig 51 TM50 20   1:41:38 0:00:00 0:00:00 1:05:33(394) 0:36:05(436) 0:41:20
450 363   630 Albrecht, Mario Brandenburg 67 TM35 63   1:41:41 0:00:00 0:00:00 1:07:37(416) 0:34:04(407) 0:41:23
451   88 628 Albrecht, Ricarda Brandenburg 69 TW35   8 1:41:44 0:14:21(352) 0:55:18(354) 1:09:39(442) 0:32:05(367) 0:41:26
452   89 642 Graul, Claudia Leipzig 74 TW30   14 1:41:49 0:12:19(201) 0:55:21(356) 1:07:40(419) 0:34:09(409) 0:41:31
453   90 668 M√ľnnich, Birgit Wasserwacht Freital 64 TW40   7 1:41:54 0:15:28(392) 0:55:58(361) 1:11:26(452) 0:30:28(310) 0:41:36
454 364   525 Richter, Ronny BSV Wei√üblau Allianz 78 TM25 64   1:42:10 0:14:33(369) 0:51:07(298) 1:05:40(397) 0:36:30(446) 0:41:52
455   91 686 Werth, Ramona Salzgitter 82 TW20   23 1:43:10 0:00:00 0:00:00 1:05:26(389) 0:37:44(459) 0:42:52
456 365   884 Sperhake, Heiko Leipzig 71 TM30 58   1:43:13 0:15:29(393) 0:51:31(301) 1:07:00(409) 0:36:13(443) 0:42:55
457   92 917 Weiser, Sabine Chemnitz 61 TW40   8 1:43:18 0:13:01(250) 0:52:28(320) 1:05:29(390) 0:37:49(461) 0:43:00
458   93 603 Sommer, Karen Leipzig 80 TW25   24 1:43:41 0:15:34(395) 0:53:03(327) 1:08:37(431) 0:35:04(428) 0:43:23
458   93 957 M√ľnzner, Ulrike   83 TW20   24 1:43:41 0:13:38(303) 0:53:57(337) 1:07:35(415) 0:36:06(437) 0:43:23
460   95 544 Hommel, Carry Leipzig 67 TW35   9 1:43:48 0:15:27(391) 0:56:32(363) 1:11:59(456) 0:31:49(359) 0:43:30
461   96 575 Koepper, Christiane Leipzig-Berlin Trias 63 TW40   9 1:43:51 0:14:02(328) 0:50:32(289) 1:04:34(366) 0:39:17(468) 0:43:33
462 366   803 Sorgatz, Heiko SG LVB 71 TM30 59   1:43:53 0:15:36(397) 1:01:43(380) 1:17:19(474) 0:26:34(158) 0:43:35
463 367   671 Liebe, Ralf SV Wasserfreunde Meiningen 61 TM40 51   1:43:59 0:12:48(234) 0:55:21(356) 1:08:09(427) 0:35:50(435) 0:43:41
464   97 655 Stolzenburg, Katja Katja 70 TW35   10 1:44:28 0:00:00 0:00:00 1:09:54(445) 0:34:34(420) 0:44:10
465 368   563 Schade, Dirk MOGONO 66 TM35 64   1:44:30 0:13:51(319) 0:57:34(367) 1:11:25(451) 0:33:05(386) 0:44:12
466 369   617 Binder, Ralf Leipzig 59 TM45 32   1:44:36 0:14:31(366) 0:54:51(348) 1:09:22(436) 0:35:14(431) 0:44:18
467   98 810 Sch√ľrer, Andreas LSC 59 TW45   7 1:44:40 0:12:39(221) 0:55:09(352) 1:07:48(421) 0:36:52(450) 0:44:22
467   98 1001 Friedrich, Monika   70 TW35   11 1:44:40 0:00:00 0:00:00 1:11:30(453) 0:33:10(389) 0:44:22
469 370   693 Bernhardt, Frank Leipzig 65 TM40 52   1:44:48 0:15:49(399) 0:57:40(368) 1:13:29(468) 0:31:19(345) 0:44:30
470   100 531 Kirsten, Bettina TV Witzhelden 60 TW45   8 1:45:10 0:14:01(327) 0:58:17(372) 1:12:18(461) 0:32:52(383) 0:44:52
471 371   509 Eilenberger, Udo Zwenkau 60 TM45 33   1:45:34 0:18:10(404) 0:51:14(299) 1:09:24(437) 0:36:10(441) 0:45:16
472 372   866 K√∂hler, Bernd Altenburg 43 TM60 5   1:45:36 0:14:30(364) 0:54:55(349) 1:09:25(438) 0:36:11(442) 0:45:18
473   101 773 Kr√∂ber, Anne Leipzig 80 TW25   25 1:45:52 0:00:00 0:00:00 1:08:46(433) 0:37:06(452) 0:45:34
474   102 940 Mei√üner, Franziska DLRG-Leipzig 87 wJun   3 1:46:16 0:00:00 0:00:00 0:00:00 0:00:00 0:45:58
475   103 591 Rath, Katja Leipzig 81 TW20   25 1:46:25 0:11:14(121) 1:00:59(378) 1:12:13(459) 0:34:12(414) 0:46:07
476   104 750 Bieber, Daniela M√ľnchen 77 TW25   26 1:46:30 0:14:44(376) 0:58:39(374) 1:13:23(466) 0:33:07(387) 0:46:12
477 373   998 Engelhardt, Felix   88 mJugA 8   1:47:29 0:14:34(370) 0:55:51(360) 1:10:25(449) 0:37:04(451) 0:47:11
478 374   604 Theiner, Mirco ATV Stolberg-Atsch 1896 e.V. 75 TM30 60   1:48:01 0:14:30(364) 0:53:36(333) 1:08:06(426) 0:39:55(471) 0:47:43
479   105 793 Bertuleit, Antje Leipzig 65 TW40   10 1:48:02 0:14:34(370) 0:59:19(376) 1:13:53(469) 0:34:09(409) 0:47:44
480 375   934 Wydra, Sebastian Leipzig 82 TM20 51   1:48:13 0:14:24(355) 0:57:16(365) 1:11:40(455) 0:36:33(447) 0:47:55
481 376   784 Bracht, Franziskus Bennewitz 89 mJugA 9   1:48:14 0:00:00 0:00:00 1:06:18(405) 0:41:56(478) 0:47:56
482   106 1083 Lehmann, Anja   75 TW30   15 1:48:17 0:11:34(138) 0:58:36(373) 1:10:10(447) 0:38:07(463) 0:47:59
483   107 879 Kretzschmar, Katrin L.E. vital fitness 71 TW30   16 1:48:20 0:12:50(237) 0:57:53(370) 1:10:43(450) 0:37:37(457) 0:48:02
484   108 572 Heinitz, Friederike Leipzig 84 TW20   26 1:48:50 0:12:54(242) 0:59:12(375) 1:12:06(458) 0:36:44(449) 0:48:32
485   109 791 Helbig, Monika Leipziger Seesportclub 59 TW45   9 1:48:55 0:14:13(343) 0:55:42(359) 1:09:55(446) 0:39:00(467) 0:48:37
486 377   632 Michael, Norman M√ľnchen 78 TM25 65   1:49:08 0:14:08(336) 0:56:03(362) 1:10:11(448) 0:38:57(466) 0:48:50
487   110 625 Vogel, Jacqueline Leipzig 72 TW30   17 1:49:16 0:14:04(331) 1:01:57(382) 1:16:01(471) 0:33:15(392) 0:48:58
488   111 845 Ueberschaer, Ina Leipzig 52 TW50   3 1:49:49 0:00:00 0:00:00 1:13:23(466) 0:36:26(444) 0:49:31
489   112 608 Andreas, Claudia Leipzig 82 TW20   27 1:50:00 0:14:50(382) 0:57:26(366) 1:12:16(460) 0:37:44(459) 0:49:42
490   113 748 Hofmann, Antje Gl√ľckauf Schwarzenberg 80 TW25   27 1:50:09 0:14:22(353) 0:55:20(355) 1:09:42(443) 0:40:27(473) 0:49:51
491   114 651 Endesfelder, Antje Leipzig 80 TW25   28 1:51:12 0:14:05(332) 1:01:00(379) 1:15:05(470) 0:36:07(439) 0:50:54
492   115 605 Sandring, Katja Leipzig 75 TW30   18 1:51:59 0:13:03(253) 0:59:20(377) 1:12:23(462) 0:39:36(469) 0:51:41
493 378   914 Ro√übach, Ren√© Markranst√§dt 83 TM20 52   1:53:21 0:14:44(376) 0:58:07(371) 1:12:51(464) 0:40:30(474) 0:53:03
494 379   814 Krienke, J√∂rg Leipzig 64 TM40 53   1:53:36 0:00:00 0:00:00 1:13:09(465) 0:40:27(472) 0:53:18
495   116 694 Heider, Ulrike USC Leipzig 80 TW25   29 1:53:42 0:14:37(374) 0:57:46(369) 1:12:23(462) 0:41:19(476) 0:53:24
496 380   928 Schulze, Dieter Leipzig 41 TM60 6   1:54:02 0:17:16(401) 0:00:00 0:00:00 0:00:00 0:53:44
497 381   584 Abraham, Robert Leipzig 76 TM25 66   1:54:10 0:14:23(354) 0:57:09(364) 1:11:32(454) 0:42:38(479) 0:53:52
498   117 894 Herrmann, Kerstin Leipziger Seesportclub 64 TW40   11 1:54:20 0:00:00 0:00:00 1:16:05(472) 0:38:15(464) 0:54:02
499   118 854 Muench, Diana Drogen 74 TW30   19 1:55:08 0:14:48(380) 1:02:30(383) 1:17:18(473) 0:37:50(462) 0:54:50
500   119 530 J√ľrs, Annerose Leipzig 58 TW45   10 1:58:45 0:17:35(402) 1:03:51(384) 1:21:26(479) 0:37:19(453) 0:58:27
501 382   692 Roche, Kolm LSC 1901 73 TM30 61   1:59:53 0:20:43(408) 1:01:43(380) 1:22:26(481) 0:37:27(454) 0:59:35
502   120 704 Nelke, Anett Halle 72 TW30   20 2:02:19 0:00:00 0:00:00 1:20:59(478) 0:41:20(477) 1:02:01
503 383   576 Seidler, Jens Leipzig-Berlin Trias 70 TM35 65   2:02:41 0:00:00 0:00:00 1:21:27(480) 0:41:14(475) 1:02:23
504   121 777 H√ľbner, Franziska Studio F 70 TW35   12 2:07:39 0:00:00 0:00:00 1:19:18(477) 0:48:21(481) 1:07:21
505 384   766 Leonhardt, G√ľnter SG LVB e.V. 38 TM65 4   2:15:02 0:17:46(403) 1:13:21(386) 1:31:07(482) 0:43:55(480) 1:14:44
506 385   669 Staude, Holm Borna 54 TM50 21   2:31:35 0:20:06(407) 0:00:00 0:00:00 0:00:00 1:31:17
      738 Chitralla, Christian 1. FC Bangalore (Indien) 81 TM20     0:00:00 0:09:42( 53 ) 0:00:00 0:00:00 0:00:00 0:00:00
      931 Scholz, Andreas Leipzig 83 TM20     0:00:00 0:15:35(396) 0:00:00 0:00:00 0:00:00 0:00:00
      972 G√ľnther, Andre ESV Lok Beucha 87 mJun     0:00:00 0:09:59( 61 ) 0:00:00 0:00:00 0:00:00 0:00:00
      1088 Schneider, Ulf   66 TM35     0:00:00 0:00:00 0:00:00 1:18:26(475) 0:00:00 0:00:00
(c) 1990-2020 Blue Wonder Sport Promotion - Andreas Burow - Zeitnahme & Auswertung - www.Triathlon-Service.de